Time;durP1;ratioP1;P1;durP2;ratioP2;P2;SDS_P1;SDS_P2;PMS_P1;PMS_P2;Temp;Humidity;BMP_temperature;BMP_pressure;BME280_temperature;BME280_humidity;BME280_pressure;Samples;Min_cycle;Max_cycle;Signal;HPM_P1;HPM_P2
2023/04/09 00:02:16;;;;;;;53.20;33.92;;;8.50;99.90;;;;;;5111721;27;20089;-33
2023/04/09 00:04:42;;;;;;;55.20;34.67;;;8.60;99.90;;;;;;5110946;27;20039;-34
2023/04/09 00:07:08;;;;;;;60.65;35.42;;;8.50;99.90;;;;;;5109110;27;20047;-34
2023/04/09 00:09:34;;;;;;;58.85;35.15;;;8.50;99.90;;;;;;5130277;27;20039;-34
2023/04/09 00:12:00;;;;;;;57.88;34.17;;;8.60;99.90;;;;;;5116764;27;20031;-34
2023/04/09 00:14:26;;;;;;;58.33;34.80;;;8.50;99.90;;;;;;5117274;27;20035;-34
2023/04/09 00:16:53;;;;;;;56.08;34.55;;;8.50;99.90;;;;;;5114140;27;20539;-34
2023/04/09 00:19:19;;;;;;;55.75;32.92;;;8.60;99.90;;;;;;5134520;27;20492;-34
2023/04/09 00:21:45;;;;;;;55.25;32.13;;;8.50;99.90;;;;;;5107056;27;20066;-32
2023/04/09 00:24:11;;;;;;;57.72;35.50;;;8.50;99.90;;;;;;5112647;28;20070;-34
2023/04/09 00:26:37;;;;;;;58.40;35.03;;;8.50;99.90;;;;;;5107169;28;20500;-34
2023/04/09 00:29:02;;;;;;;58.33;35.10;;;8.50;99.90;;;;;;5112498;27;20126;-34
2023/04/09 00:31:28;;;;;;;55.38;33.53;;;8.50;99.90;;;;;;5119955;27;20031;-34
2023/04/09 00:33:54;;;;;;;51.10;33.00;;;8.50;99.90;;;;;;5110411;27;20095;-34
2023/04/09 00:36:26;;;;;;;57.40;33.55;;;8.50;99.90;;;;;;5135715;27;20043;-35
2023/04/09 00:38:52;;;;;;;56.35;33.33;;;8.50;99.90;;;;;;5113500;27;20073;-34
2023/04/09 00:41:18;;;;;;;57.03;35.00;;;8.50;99.90;;;;;;5116457;27;20131;-34
2023/04/09 00:43:44;;;;;;;53.30;33.75;;;8.50;99.90;;;;;;5110085;28;20110;-34
2023/04/09 00:46:10;;;;;;;58.72;36.03;;;8.40;99.90;;;;;;5113445;27;20110;-34
2023/04/09 00:48:36;;;;;;;59.55;34.88;;;8.40;99.90;;;;;;5114107;27;20564;-31
2023/04/09 00:51:01;;;;;;;54.38;34.50;;;8.30;99.90;;;;;;5110847;27;20039;-34
2023/04/09 00:53:27;;;;;;;53.72;33.05;;;8.40;99.90;;;;;;5096287;27;20400;-34
2023/04/09 00:55:54;;;;;;;57.22;35.55;;;8.40;99.90;;;;;;5115693;27;20082;-34
2023/04/09 00:58:20;;;;;;;58.63;35.92;;;8.30;99.90;;;;;;5117105;27;20043;-34
2023/04/09 01:00:46;;;;;;;51.78;33.33;;;8.40;99.90;;;;;;5116943;27;20164;-34
2023/04/09 01:03:12;;;;;;;55.13;33.28;;;8.40;99.90;;;;;;5110620;27;20074;-33
2023/04/09 01:05:58;;;;;;;55.80;34.63;;;8.40;99.90;;;;;;5113048;27;20031;-31
2023/04/09 01:08:32;;;;;;;48.35;32.00;;;8.30;99.90;;;;;;5114520;27;20023;-34
2023/04/09 01:11:08;;;;;;;56.42;35.42;;;8.40;99.90;;;;;;5129146;27;20034;-31
2023/04/09 01:13:57;;;;;;;53.35;33.95;;;8.40;99.90;;;;;;5110239;27;20042;-31
2023/04/09 01:16:23;;;;;;;53.72;32.88;;;8.40;99.90;;;;;;5113976;27;20046;-31
2023/04/09 01:18:58;;;;;;;50.10;31.98;;;8.40;99.90;;;;;;5115251;27;20408;-31
2023/04/09 01:21:30;;;;;;;53.13;34.15;;;8.30;99.90;;;;;;5111973;27;20642;-35
2023/04/09 01:24:22;;;;;;;50.65;31.95;;;8.30;99.90;;;;;;5111848;27;20118;-34
2023/04/09 01:27:07;;;;;;;52.25;32.45;;;8.40;99.90;;;;;;5101498;27;20039;-34
2023/04/09 01:29:37;;;;;;;52.38;32.78;;;8.40;99.90;;;;;;5110704;27;20040;-33
2023/04/09 01:32:05;;;;;;;55.15;34.08;;;8.30;99.90;;;;;;5111426;27;20118;-34
2023/04/09 01:34:31;;;;;;;50.90;33.00;;;8.30;99.90;;;;;;5114933;27;20038;-33
2023/04/09 01:36:59;;;;;;;52.28;33.22;;;8.30;99.90;;;;;;5110973;27;20034;-32
2023/04/09 01:39:26;;;;;;;51.00;32.63;;;8.30;99.90;;;;;;5114742;27;20036;-33
2023/04/09 01:41:52;;;;;;;52.03;32.88;;;8.30;99.90;;;;;;5117527;27;20035;-33
2023/04/09 01:44:19;;;;;;;55.42;34.15;;;8.30;99.90;;;;;;5108588;27;20039;-33
2023/04/09 01:46:49;;;;;;;58.15;35.70;;;8.30;99.90;;;;;;5110302;27;20484;-33
2023/04/09 01:49:16;;;;;;;54.85;34.42;;;8.30;99.90;;;;;;5111060;27;20042;-33
2023/04/09 01:51:42;;;;;;;49.90;31.85;;;8.30;99.90;;;;;;5114303;27;20027;-34
2023/04/09 01:54:08;;;;;;;45.70;30.50;;;8.20;99.90;;;;;;5107040;27;20125;-33
2023/04/09 01:56:42;;;;;;;51.45;32.20;;;8.20;99.90;;;;;;5113684;28;20441;-34
2023/04/09 01:59:08;;;;;;;;;;;8.30;99.90;;;;;;5115323;27;20035;-33
2023/04/09 02:01:42;;;;;;;48.78;32.17;;;8.30;99.90;;;;;;5095761;27;20002;-33
2023/04/09 02:04:27;;;;;;;51.70;32.85;;;8.30;99.90;;;;;;5112024;27;20031;-33
2023/04/09 02:07:05;;;;;;;52.90;31.75;;;8.30;99.90;;;;;;5111764;27;20031;-34
2023/04/09 02:09:32;;;;;;;56.88;32.40;;;8.20;99.90;;;;;;5114654;27;20484;-33
2023/04/09 02:12:02;;;;;;;49.15;32.10;;;8.30;99.90;;;;;;5113134;27;20100;-33
2023/04/09 02:14:31;;;;;;;58.35;34.45;;;8.20;99.90;;;;;;5116920;27;20039;-33
2023/04/09 02:16:58;;;;;;;52.50;33.40;;;8.20;99.90;;;;;;5112873;27;20076;-33
2023/04/09 02:19:24;;;;;;;50.67;31.80;;;8.30;99.90;;;;;;5100873;27;20047;-33
2023/04/09 02:21:50;;;;;;;57.70;35.33;;;8.20;99.90;;;;;;5110254;27;20031;-33
2023/04/09 02:26:54;;;;;;;53.60;32.38;;;8.20;99.90;;;;;;5124653;22;20039;-87
2023/04/09 02:29:20;;;;;;;58.88;35.63;;;7.90;99.90;;;;;;5071367;28;20054;-86
2023/04/09 02:31:45;;;;;;;54.20;33.33;;;8.00;99.90;;;;;;5061178;28;20035;-87
2023/04/09 02:34:11;;;;;;;49.60;33.15;;;8.20;99.90;;;;;;5080994;28;20043;-87
2023/04/09 02:36:36;;;;;;;53.92;34.78;;;8.00;99.90;;;;;;5056272;28;20508;-86
2023/04/09 02:39:02;;;;;;;56.22;34.47;;;8.00;99.90;;;;;;5052002;28;20567;-87
2023/04/09 02:41:28;;;;;;;52.17;32.50;;;8.10;99.90;;;;;;5068227;28;20131;-86
2023/04/09 02:43:54;;;;;;;57.83;33.70;;;8.10;99.90;;;;;;5064654;28;20130;-87
2023/04/09 02:46:20;;;;;;;55.88;34.58;;;7.90;99.90;;;;;;5073956;28;20046;-86
2023/04/09 02:48:46;;;;;;;51.65;32.80;;;8.10;99.90;;;;;;5066363;28;20044;-87
2023/04/09 02:51:11;;;;;;;47.53;31.63;;;8.10;99.90;;;;;;5054121;28;20065;-87
2023/04/09 02:53:39;;;;;;;52.30;32.65;;;8.00;99.90;;;;;;5068147;28;20040;-86
2023/04/09 02:56:05;;;;;;;52.72;30.77;;;7.90;99.90;;;;;;5064861;28;20040;-86
2023/04/09 02:58:30;;;;;;;55.13;32.78;;;8.80;99.90;;;;;;5067425;28;20047;-87
2023/04/09 03:00:56;;;;;;;50.30;32.10;;;8.00;99.90;;;;;;5064197;28;20044;-87
2023/04/09 03:03:21;;;;;;;51.17;30.77;;;8.00;99.90;;;;;;5051522;28;20028;-88
2023/04/09 03:05:47;;;;;;;49.20;31.45;;;7.90;99.90;;;;;;5064063;28;20041;-86
2023/04/09 03:08:13;;;;;;;47.58;30.02;;;8.00;99.90;;;;;;5068842;28;20032;-87
2023/04/09 03:10:39;;;;;;;53.00;32.65;;;7.90;99.90;;;;;;5064439;28;20513;-86
2023/04/09 03:13:04;;;;;;;55.05;32.20;;;7.80;99.90;;;;;;5047661;28;20036;-87
2023/04/09 03:15:30;;;;;;;48.47;30.73;;;7.90;99.90;;;;;;5048607;28;20503;-87
2023/04/09 03:17:55;;;;;;;48.08;30.95;;;7.90;99.90;;;;;;5066445;28;20043;-87
2023/04/09 03:20:21;;;;;;;52.50;29.80;;;7.90;99.90;;;;;;5069250;28;20040;-86
2023/04/09 03:22:46;;;;;;;52.85;32.20;;;8.00;99.90;;;;;;5064199;28;20041;-87
2023/04/09 03:25:12;;;;;;;48.83;29.58;;;7.80;99.90;;;;;;5063514;28;20409;-87
2023/04/09 03:27:37;;;;;;;51.92;32.28;;;7.90;99.90;;;;;;5063667;28;20067;-87
2023/04/09 03:30:03;;;;;;;51.90;30.60;;;7.90;99.90;;;;;;5069470;28;20220;-88
2023/04/09 03:32:29;;;;;;;54.13;32.13;;;8.10;99.90;;;;;;5060620;28;20737;-88
2023/04/09 03:34:54;;;;;;;47.22;31.73;;;7.90;99.90;;;;;;5054539;28;20056;-87
2023/04/09 03:37:20;;;;;;;50.75;31.30;;;7.90;99.90;;;;;;5067464;28;20041;-87
2023/04/09 03:39:45;;;;;;;46.63;31.23;;;8.00;99.90;;;;;;5073632;28;20036;-86
2023/04/09 03:42:11;;;;;;;49.80;32.00;;;7.90;99.90;;;;;;5070890;28;20028;-87
2023/04/09 03:44:36;;;;;;;56.85;33.17;;;7.90;99.90;;;;;;5059474;28;20036;-87
2023/04/09 03:47:02;;;;;;;53.58;32.50;;;7.90;99.90;;;;;;5068828;28;20102;-87
2023/04/09 03:49:28;;;;;;;48.70;31.45;;;7.80;99.90;;;;;;5069458;28;20499;-87
2023/04/09 03:51:53;;;;;;;49.83;31.42;;;7.80;99.90;;;;;;5056424;28;20032;-88
2023/04/09 03:54:19;;;;;;;52.58;32.92;;;7.90;99.90;;;;;;5072044;28;20482;-87
2023/04/09 03:56:44;;;;;;;48.25;30.20;;;7.80;99.90;;;;;;5057073;28;20475;-87
2023/04/09 03:59:10;;;;;;;49.80;31.60;;;7.80;99.90;;;;;;5053416;28;20048;-86
2023/04/09 04:01:35;;;;;;;48.40;30.20;;;7.90;99.90;;;;;;5067496;28;20510;-87
2023/04/09 04:04:01;;;;;;;48.90;30.98;;;7.90;99.90;;;;;;5052318;28;20446;-85
2023/04/09 04:06:26;;;;;;;50.97;31.92;;;7.90;99.90;;;;;;5066130;28;20028;-87
2023/04/09 04:08:52;;;;;;;50.35;31.58;;;7.80;99.90;;;;;;5048752;28;20041;-87
2023/04/09 04:11:18;;;;;;;49.92;29.67;;;7.80;99.90;;;;;;5072409;28;20116;-88
2023/04/09 04:13:43;;;;;;;51.17;30.92;;;7.90;99.90;;;;;;5047387;28;20052;-88
2023/04/09 04:16:09;;;;;;;45.75;29.65;;;7.90;99.90;;;;;;5068559;28;20040;-88
2023/04/09 04:18:35;;;;;;;46.40;30.20;;;7.80;99.90;;;;;;5056892;28;20152;-88
2023/04/09 04:21:01;;;;;;;51.15;31.90;;;7.80;99.90;;;;;;5070571;28;20109;-87
2023/04/09 04:23:27;;;;;;;49.65;29.50;;;7.80;99.90;;;;;;5071372;28;20064;-87
2023/04/09 04:25:52;;;;;;;46.58;30.45;;;8.20;99.90;;;;;;5058355;28;20036;-88
2023/04/09 04:28:18;;;;;;;47.60;28.80;;;7.80;99.90;;;;;;5072990;28;20024;-88
2023/04/09 04:30:44;;;;;;;43.67;30.35;;;7.80;99.90;;;;;;5056123;28;20028;-88
2023/04/09 04:33:09;;;;;;;47.63;28.38;;;7.80;99.90;;;;;;5057149;28;20497;-87
2023/04/09 04:35:35;;;;;;;49.90;30.92;;;7.80;99.90;;;;;;5068091;28;20398;-86
2023/04/09 04:38:00;;;;;;;47.67;29.23;;;7.80;99.90;;;;;;5058471;28;20438;-88
2023/04/09 04:40:26;;;;;;;45.83;29.63;;;7.80;99.90;;;;;;5073252;28;20508;-87
2023/04/09 04:42:52;;;;;;;48.38;29.58;;;7.80;99.90;;;;;;5071811;28;20040;-87
2023/04/09 04:45:17;;;;;;;45.78;29.63;;;7.90;99.90;;;;;;5054564;28;20028;-86
2023/04/09 04:47:43;;;;;;;44.28;29.48;;;7.80;99.90;;;;;;5056635;28;20119;-88
2023/04/09 04:50:09;;;;;;;47.13;28.67;;;7.90;99.90;;;;;;5071913;28;20039;-88
2023/04/09 04:52:35;;;;;;;47.50;29.17;;;7.90;99.90;;;;;;5069949;28;20174;-87
2023/04/09 04:55:01;;;;;;;44.05;28.77;;;7.90;99.90;;;;;;5054395;28;20097;-87
2023/04/09 04:57:53;;;;;;;42.63;28.05;;;7.90;99.90;;;;;;5080093;28;20044;-86
2023/04/09 05:00:19;;;;;;;43.90;27.80;;;7.90;99.90;;;;;;5089331;28;20078;-87
2023/04/09 05:02:45;;;;;;;45.33;27.35;;;7.80;99.90;;;;;;5073163;28;20036;-87
2023/04/09 05:05:10;;;;;;;38.78;26.77;;;7.80;99.90;;;;;;5072130;28;20028;-88
2023/04/09 05:07:41;;;;;;;43.45;27.77;;;7.80;99.90;;;;;;5066261;28;20035;-87
2023/04/09 05:10:08;;;;;;;39.65;26.30;;;7.80;99.90;;;;;;5073999;28;20043;-87
2023/04/09 05:12:33;;;;;;;38.83;26.90;;;7.90;99.90;;;;;;5063078;28;20065;-87
2023/04/09 05:15:01;;;;;;;40.17;25.75;;;7.80;99.90;;;;;;5053494;28;20500;-87
2023/04/09 05:17:30;;;;;;;40.60;26.80;;;7.90;99.90;;;;;;5057284;28;20032;-87
2023/04/09 05:19:56;;;;;;;43.03;27.50;;;7.80;99.90;;;;;;5062318;28;20123;-87
2023/04/09 05:22:22;;;;;;;42.22;27.60;;;7.90;99.90;;;;;;5067627;28;20505;-88
2023/04/09 05:24:48;;;;;;;44.55;29.23;;;7.80;99.90;;;;;;5075320;28;20036;-84
2023/04/09 05:27:13;;;;;;;42.72;27.70;;;7.90;99.90;;;;;;5095379;28;20024;-84
2023/04/09 05:29:39;;;;;;;39.97;26.73;;;7.90;99.90;;;;;;5079787;28;20036;-85
2023/04/09 05:32:05;;;;;;;43.17;27.25;;;7.90;99.90;;;;;;5071571;28;20036;-86
2023/04/09 05:34:31;;;;;;;47.03;28.02;;;7.80;99.90;;;;;;5059780;28;20071;-86
2023/04/09 05:36:56;;;;;;;41.30;27.38;;;7.90;99.90;;;;;;5053352;28;20028;-84
2023/04/09 05:39:22;;;;;;;39.78;26.25;;;7.90;99.90;;;;;;5075575;28;20040;-85
2023/04/09 05:42:32;;;;;;;41.60;27.15;;;8.00;99.90;;;;;;5073154;28;20036;-87
2023/04/09 05:44:57;;;;;;;44.80;28.90;;;8.10;99.90;;;;;;5067806;28;20139;-85
2023/04/09 05:47:23;;;;;;;44.60;28.98;;;7.90;99.90;;;;;;5071353;28;20119;-86
2023/04/09 05:49:48;;;;;;;44.53;28.95;;;8.00;99.90;;;;;;5043811;28;20399;-86
2023/04/09 05:52:15;;;;;;;44.92;28.67;;;7.90;99.90;;;;;;5066708;28;20081;-87
2023/04/09 05:54:41;;;;;;;43.03;27.88;;;8.20;99.90;;;;;;5062115;28;20035;-85
2023/04/09 05:57:06;;;;;;;45.78;29.35;;;7.90;99.90;;;;;;5062035;28;20040;-85
2023/04/09 05:59:32;;;;;;;44.10;29.27;;;8.00;99.90;;;;;;5039862;28;20029;-85
2023/04/09 06:02:15;;;;;;;41.42;28.33;;;7.90;99.90;;;;;;5066935;28;20036;-85
2023/04/09 06:04:41;;;;;;;42.30;27.48;;;7.90;99.90;;;;;;5077009;28;20059;-84
2023/04/09 06:07:07;;;;;;;44.25;29.50;;;7.80;99.90;;;;;;5072846;28;20041;-85
2023/04/09 06:09:32;;;;;;;41.03;27.75;;;8.00;99.90;;;;;;5084836;28;20047;-85
2023/04/09 06:11:58;;;;;;;47.42;29.90;;;8.00;99.90;;;;;;5069878;28;20456;-85
2023/04/09 06:14:23;;;;;;;47.30;29.15;;;8.00;99.90;;;;;;5068589;28;20110;-85
2023/04/09 06:16:49;;;;;;;46.10;28.88;;;7.90;99.90;;;;;;5070127;28;20427;-85
2023/04/09 06:19:15;;;;;;;45.72;29.33;;;8.20;99.90;;;;;;5072637;28;20568;-85
2023/04/09 06:21:41;;;;;;;45.28;28.83;;;8.10;99.90;;;;;;5056777;28;20024;-85
2023/04/09 06:24:06;;;;;;;46.15;28.50;;;8.20;99.90;;;;;;5069012;28;20472;-85
2023/04/09 06:26:32;;;;;;;50.08;30.85;;;8.10;99.90;;;;;;5070672;28;20032;-85
2023/04/09 06:28:58;;;;;;;50.63;31.50;;;8.10;99.90;;;;;;5066191;28;20035;-85
2023/04/09 06:31:23;;;;;;;49.60;32.17;;;8.40;99.90;;;;;;5065767;28;20036;-85
2023/04/09 06:33:49;;;;;;;51.95;31.17;;;8.40;99.90;;;;;;5067939;28;20059;-84
2023/04/09 06:36:14;;;;;;;48.13;29.15;;;8.60;99.90;;;;;;5067892;28;20602;-85
2023/04/09 06:38:40;;;;;;;47.17;30.80;;;8.70;99.90;;;;;;5069896;28;20036;-85
2023/04/09 06:41:07;;;;;;;46.97;29.33;;;8.90;99.90;;;;;;5066570;28;20040;-85
2023/04/09 06:43:32;;;;;;;48.75;30.20;;;8.90;99.90;;;;;;5052785;28;20056;-85
2023/04/09 06:45:58;;;;;;;45.92;29.30;;;9.10;99.90;;;;;;5045950;28;20040;-85
2023/04/09 06:48:24;;;;;;;47.58;29.70;;;9.10;99.90;;;;;;5059592;28;20039;-85
2023/04/09 06:50:49;;;;;;;44.00;28.00;;;9.10;99.90;;;;;;5062915;28;20105;-85
2023/04/09 06:53:15;;;;;;;47.75;30.20;;;9.10;99.90;;;;;;5067454;28;20036;-85
2023/04/09 06:55:42;;;;;;;48.42;29.83;;;9.10;99.90;;;;;;5071143;28;20039;-85
2023/04/09 06:58:07;;;;;;;47.00;29.90;;;9.10;99.90;;;;;;5073916;28;20044;-85
2023/04/09 07:00:33;;;;;;;45.15;30.05;;;9.00;99.90;;;;;;5069367;28;20073;-87
2023/04/09 07:02:58;;;;;;;47.53;29.23;;;8.80;99.90;;;;;;5064676;28;20461;-85
2023/04/09 07:05:24;;;;;;;47.38;29.70;;;8.90;99.90;;;;;;5059205;28;20081;-85
2023/04/09 07:07:49;;;;;;;46.13;30.08;;;9.00;99.90;;;;;;5087523;28;20497;-86
2023/04/09 07:10:15;;;;;;;49.15;29.33;;;8.80;99.90;;;;;;5070271;28;20036;-85
2023/04/09 07:12:40;;;;;;;45.63;29.27;;;9.10;99.90;;;;;;5071751;28;20056;-85
2023/04/09 07:15:06;;;;;;;46.55;28.98;;;8.80;99.90;;;;;;5066600;28;20047;-85
2023/04/09 07:17:33;;;;;;;45.67;30.60;;;9.00;99.90;;;;;;5073456;28;20549;-85
2023/04/09 07:19:59;;;;;;;48.22;29.95;;;8.90;99.90;;;;;;5067002;28;20032;-85
2023/04/09 07:22:26;;;;;;;49.60;30.90;;;9.00;99.90;;;;;;5052107;28;20821;-86
2023/04/09 07:24:55;;;;;;;48.33;29.95;;;9.10;99.90;;;;;;5070546;28;20054;-85
2023/04/09 07:27:25;;;;;;;46.92;30.80;;;9.10;99.90;;;;;;5057405;28;20033;-85
2023/04/09 07:29:53;;;;;;;53.88;32.35;;;9.30;99.90;;;;;;5054271;28;20378;-85
2023/04/09 07:32:18;;;;;;;51.47;32.63;;;9.00;99.90;;;;;;5067086;28;20038;-84
2023/04/09 07:34:44;;;;;;;48.90;31.63;;;9.10;99.90;;;;;;5057516;28;20406;-84
2023/04/09 07:37:10;;;;;;;48.08;32.30;;;9.30;99.90;;;;;;5065291;28;20131;-85
2023/04/09 07:39:36;;;;;;;51.78;33.85;;;9.30;99.90;;;;;;5057667;28;20032;-85
2023/04/09 07:42:03;;;;;;;50.50;33.15;;;9.50;99.90;;;;;;5061102;28;20047;-85
2023/04/09 07:44:32;;;;;;;49.17;33.35;;;9.80;99.90;;;;;;5062939;28;20115;-85
2023/04/09 07:46:58;;;;;;;48.60;33.63;;;9.70;99.90;;;;;;5072568;28;20107;-84
2023/04/09 07:49:23;;;;;;;53.65;33.95;;;9.60;99.90;;;;;;5076606;28;20123;-85
2023/04/09 07:51:49;;;;;;;48.22;33.38;;;9.80;99.90;;;;;;5049527;28;20036;-83
2023/04/09 07:54:14;;;;;;;48.13;32.90;;;9.90;99.90;;;;;;5059545;28;20557;-84
2023/04/09 07:56:40;;;;;;;49.83;32.83;;;9.80;99.90;;;;;;5069341;28;20032;-85
2023/04/09 07:59:05;;;;;;;46.58;31.35;;;10.20;99.90;;;;;;5069850;28;20063;-85
2023/04/09 08:01:31;;;;;;;48.95;32.60;;;10.10;99.90;;;;;;5073591;28;20054;-85
2023/04/09 08:03:57;;;;;;;51.42;33.97;;;10.00;99.90;;;;;;5067631;28;20514;-84
2023/04/09 08:06:22;;;;;;;46.20;32.58;;;10.30;99.90;;;;;;5072946;28;20554;-85
2023/04/09 08:08:58;;;;;;;49.70;33.38;;;10.60;99.90;;;;;;5069542;28;20403;-85
2023/04/09 08:12:02;;;;;;;43.42;30.73;;;10.70;99.90;;;;;;5029127;28;20041;-83
2023/04/09 08:15:37;;;;;;;50.58;32.72;;;11.10;99.90;;;;;;5011070;28;20048;-85
2023/04/09 08:18:49;;;;;;;48.78;32.00;;;11.40;99.90;;;;;;5084368;28;20261;-85
2023/04/09 08:21:54;;;;;;;47.83;31.77;;;11.70;99.90;;;;;;5077508;28;20410;-85
2023/04/09 08:24:42;;;;;;;48.75;32.88;;;11.40;99.90;;;;;;5054627;28;20101;-84
2023/04/09 08:27:08;;;;;;;43.72;30.33;;;11.50;99.90;;;;;;5064640;28;20045;-85
2023/04/09 08:29:34;;;;;;;48.03;29.70;;;12.50;99.90;;;;;;5068462;28;20035;-84
2023/04/09 08:32:23;;;;;;;42.85;30.27;;;11.80;99.90;;;;;;5048476;28;20036;-84
2023/04/09 08:34:48;;;;;;;44.55;29.58;;;12.20;99.90;;;;;;5082349;28;20072;-84
2023/04/09 08:37:15;;;;;;;43.80;29.85;;;12.20;99.90;;;;;;5071235;28;20036;-85
2023/04/09 08:39:40;;;;;;;43.42;29.48;;;13.00;99.90;;;;;;5081569;28;20052;-85
2023/04/09 08:42:07;;;;;;;42.83;29.10;;;12.30;99.90;;;;;;5051906;28;20483;-85
2023/04/09 08:44:33;;;;;;;42.00;29.85;;;12.60;99.90;;;;;;5073726;28;20048;-85
2023/04/09 08:46:59;;;;;;;41.20;29.58;;;13.10;99.90;;;;;;5090564;28;20034;-82
2023/04/09 08:49:25;;;;;;;42.50;28.88;;;13.20;99.90;;;;;;5070467;28;20078;-83
2023/04/09 08:51:50;;;;;;;39.88;28.38;;;13.00;99.90;;;;;;5068111;28;20044;-85
2023/04/09 08:54:18;;;;;;;39.80;28.55;;;13.20;99.90;;;;;;5069681;28;20036;-84
2023/04/09 08:56:45;;;;;;;37.72;28.58;;;14.40;99.90;;;;;;5072748;28;20051;-84
2023/04/09 08:59:13;;;;;;;40.97;28.55;;;13.50;99.90;;;;;;5076310;28;20029;-86
2023/04/09 09:01:39;;;;;;;38.28;28.17;;;14.90;99.90;;;;;;5094983;28;20035;-85
2023/04/09 09:04:07;;;;;;;40.58;29.95;;;13.80;99.90;;;;;;5073758;28;20411;-84
2023/04/09 09:06:36;;;;;;;38.65;28.77;;;14.80;99.90;;;;;;5072352;28;20084;-81
2023/04/09 09:09:04;;;;;;;34.80;27.00;;;14.50;99.90;;;;;;5074861;28;20119;-83
2023/04/09 09:11:30;;;;;;;37.53;28.02;;;14.90;99.90;;;;;;5073004;28;20232;-81
2023/04/09 09:14:01;;;;;;;37.30;28.63;;;14.80;99.90;;;;;;5065630;28;20142;-81
2023/04/09 09:16:27;;;;;;;35.72;27.65;;;14.30;99.90;;;;;;5069000;28;20515;-80
2023/04/09 09:18:54;;;;;;;35.47;27.00;;;14.70;99.90;;;;;;5071508;28;20202;-81
2023/04/09 09:21:21;;;;;;;36.60;27.75;;;15.20;99.90;;;;;;5063959;28;20115;-81
2023/04/09 09:23:48;;;;;;;37.97;28.23;;;15.20;99.90;;;;;;5061730;28;20024;-81
2023/04/09 09:26:21;;;;;;;37.15;28.35;;;14.90;99.90;;;;;;5046290;28;20123;-81
2023/04/09 09:28:48;;;;;;;35.55;27.50;;;15.30;99.90;;;;;;5068997;28;20046;-81
2023/04/09 09:31:15;;;;;;;37.88;29.10;;;15.80;99.90;;;;;;5077358;28;20100;-80
2023/04/09 09:33:41;;;;;;;36.45;28.08;;;15.50;99.90;;;;;;5070574;28;20067;-81
2023/04/09 09:36:10;;;;;;;33.30;25.63;;;15.20;99.90;;;;;;5066523;28;20522;-80
2023/04/09 09:38:56;;;;;;;33.33;26.30;;;15.20;99.90;;;;;;5069993;28;20085;-81
2023/04/09 09:41:23;;;;;;;33.08;26.75;;;15.80;99.90;;;;;;5076514;28;20115;-81
2023/04/09 09:43:49;;;;;;;36.53;28.08;;;16.50;99.90;;;;;;5093501;28;20070;-81
2023/04/09 09:46:15;;;;;;;33.80;26.50;;;16.30;99.90;;;;;;5076850;28;20439;-81
2023/04/09 09:48:42;;;;;;;34.15;26.42;;;16.80;99.90;;;;;;5074628;28;20053;-81
2023/04/09 09:51:09;;;;;;;34.67;27.83;;;16.10;99.90;;;;;;5085646;28;20040;-81
2023/04/09 09:53:36;;;;;;;32.25;26.85;;;16.10;99.90;;;;;;5077048;28;20040;-82
2023/04/09 09:56:08;;;;;;;34.28;27.33;;;16.20;99.90;;;;;;5071795;28;20126;-81
2023/04/09 09:58:39;;;;;;;35.75;27.90;;;16.90;99.90;;;;;;5071434;28;20097;-81
2023/04/09 10:01:11;;;;;;;38.63;28.40;;;17.40;99.90;;;;;;5064794;28;20083;-81
2023/04/09 10:03:38;;;;;;;35.80;28.10;;;16.90;99.90;;;;;;5067820;28;20036;-81
2023/04/09 10:06:05;;;;;;;34.83;27.80;;;16.60;99.90;;;;;;5059254;28;20051;-81
2023/04/09 10:08:32;;;;;;;33.72;26.30;;;16.60;99.90;;;;;;5067831;28;20439;-82
2023/04/09 10:11:00;;;;;;;33.67;26.85;;;16.50;99.90;;;;;;5075378;28;20122;-81
2023/04/09 10:13:32;;;;;;;29.90;25.05;;;16.20;99.90;;;;;;5068435;28;20040;-81
2023/04/09 10:15:59;;;;;;;31.77;25.67;;;16.10;99.90;;;;;;5075813;28;20040;-81
2023/04/09 10:18:25;;;;;;;28.00;24.13;;;16.50;99.90;;;;;;5065549;28;20046;-81
2023/04/09 10:21:11;;;;;;;31.15;25.10;;;16.80;99.90;;;;;;5068178;28;20048;-81
2023/04/09 10:23:38;;;;;;;;;;;17.10;99.90;;;;;;5072271;28;20051;-79
2023/04/09 10:26:04;;;;;;;28.38;23.13;;;17.60;94.00;;;;;;5068471;28;19920;-82
2023/04/09 10:28:36;;;;;;;27.60;23.23;;;17.50;99.90;;;;;;5083702;28;20023;-81
2023/04/09 10:31:07;;;;;;;26.27;22.20;;;18.20;99.90;;;;;;5084158;28;20052;-80
2023/04/09 10:33:36;;;;;;;25.90;22.55;;;18.00;99.90;;;;;;5065367;28;20040;-81
2023/04/09 10:40:15;;;;;;;28.13;22.42;;;18.60;92.60;;;;;;5079540;28;20102;-87
2023/04/09 10:42:48;;;;;;;26.60;21.88;;;17.60;99.90;;;;;;5008523;28;20076;-85
2023/04/09 10:49:43;;;;;;;22.45;19.67;;;18.50;97.90;;;;;;4946376;29;20126;-87
2023/04/09 10:53:42;;;;;;;23.83;20.50;;;18.80;70.20;;;;;;4882255;29;20506;-88
2023/04/09 11:34:52;;;;;;;23.80;20.08;;;18.10;65.40;;;;;;4881859;29;20580;-88
2023/04/09 11:53:33;;;;;;;21.45;19.13;;;19.00;69.00;;;;;;4903934;29;20042;-88
2023/04/09 11:56:29;;;;;;;22.02;19.63;;;20.10;63.20;;;;;;4918671;29;20050;-88
2023/04/09 13:46:14;;;;;;;12.68;11.43;;;26.50;45.00;;;;;;5081740;28;20947;-83
2023/04/09 15:36:23;;;;;;;15.57;12.85;;;18.40;54.20;;;;;;5085174;28;20105;-87
2023/04/09 16:42:51;;;;;;;12.35;10.65;;;15.90;61.40;;;;;;5085636;28;20059;-89
2023/04/09 16:45:41;;;;;;;12.98;11.50;;;15.70;61.60;;;;;;5089003;28;20078;-85
2023/04/09 16:48:54;;;;;;;12.75;11.18;;;15.40;63.30;;;;;;5087785;28;20044;-88
2023/04/09 16:59:25;;;;;;;14.93;10.82;;;15.40;63.80;;;;;;5091968;28;20055;-87
2023/04/09 17:38:19;;;;;;;12.85;11.35;;;14.50;67.80;;;;;;5085617;28;20491;-85
2023/04/09 17:42:18;;;;;;;14.93;11.88;;;14.10;69.70;;;;;;5074632;28;20035;-86
2023/04/09 17:50:13;;;;;;;12.07;10.23;;;14.30;72.30;;;;;;5060191;28;20865;-86
2023/04/09 17:53:42;;;;;;;13.90;10.98;;;13.60;75.20;;;;;;4990088;28;20045;-86
2023/04/09 18:08:08;;;;;;;13.20;10.43;;;13.00;87.80;;;;;;4953060;28;20542;-86
2023/04/09 18:11:36;;;;;;;13.43;10.18;;;13.00;88.90;;;;;;4925146;29;20141;-85
2023/04/09 18:19:02;;;;;;;12.50;10.10;;;12.60;96.90;;;;;;4937407;29;20074;-86
2023/04/09 18:30:13;;;;;;;13.05;10.82;;;12.30;99.90;;;;;;4932206;28;20046;-86
2023/04/09 18:33:33;;;;;;;13.02;10.70;;;12.10;99.90;;;;;;4958349;28;20054;-84
2023/04/09 18:36:52;;;;;;;13.80;11.05;;;12.10;99.90;;;;;;5009505;28;20526;-85
2023/04/09 18:40:27;;;;;;;13.93;10.68;;;12.00;99.90;;;;;;5045812;28;20066;-86
2023/04/09 18:43:42;;;;;;;13.82;10.93;;;11.90;99.90;;;;;;5017920;28;20108;-86
2023/04/09 18:47:09;;;;;;;13.13;11.00;;;12.10;99.90;;;;;;4980138;28;20052;-86
2023/04/09 19:01:13;;;;;;;12.15;10.20;;;11.60;99.90;;;;;;4915886;29;20094;-86
2023/04/09 19:04:20;;;;;;;13.60;11.20;;;11.50;99.90;;;;;;4918628;29;20139;-87
2023/04/09 19:30:01;;;;;;;41.30;28.45;;;10.90;99.90;;;;;;4961124;28;20060;-85
2023/04/09 19:32:46;;;;;;;38.50;26.48;;;10.60;99.90;;;;;;4935315;28;20046;-86
2023/04/09 19:35:39;;;;;;;38.15;25.55;;;10.90;99.90;;;;;;4958058;28;20058;-87
2023/04/09 19:38:27;;;;;;;33.80;24.98;;;10.70;99.90;;;;;;4954878;28;20043;-86
2023/04/09 19:41:16;;;;;;;33.70;24.50;;;10.60;99.90;;;;;;4948656;28;20046;-88
2023/04/09 19:43:48;;;;;;;32.33;23.60;;;10.50;99.90;;;;;;4955437;28;20047;-87
2023/04/09 19:46:24;;;;;;;36.17;26.52;;;10.50;99.90;;;;;;4976332;28;20053;-86
2023/04/09 19:48:53;;;;;;;31.92;23.92;;;10.50;99.90;;;;;;4997121;28;20125;-85
2023/04/09 19:51:54;;;;;;;29.55;23.25;;;10.10;99.90;;;;;;5074666;28;20043;-86
2023/04/09 19:54:43;;;;;;;32.10;23.25;;;10.40;99.90;;;;;;5065251;28;20054;-86
2023/04/09 19:57:16;;;;;;;30.15;23.33;;;11.30;99.90;;;;;;5055531;28;20040;-86
2023/04/09 19:59:48;;;;;;;30.05;22.60;;;10.60;99.90;;;;;;5065866;28;20028;-86
2023/04/09 20:32:06;;;;;;;35.65;28.17;;;9.40;99.90;;;;;;5095649;28;20054;-86
2023/04/09 20:38:56;;;;;;;45.13;32.20;;;9.60;99.90;;;;;;5096837;28;20150;-87
2023/04/09 21:20:07;;;;;;;40.50;30.90;;;9.10;99.90;;;;;;4917419;29;20145;-86
2023/04/09 21:37:28;;;;;;;37.50;27.90;;;8.80;99.90;;;;;;4916019;29;20131;-86
2023/04/09 21:40:20;;;;;;;33.70;26.98;;;8.30;99.90;;;;;;4906983;29;20059;-87
2023/04/09 21:42:45;;;;;;;37.72;28.38;;;8.50;99.90;;;;;;4883138;29;20048;-87
2023/04/09 21:45:46;;;;;;;33.90;25.88;;;8.40;99.90;;;;;;4886731;29;20043;-87
2023/04/09 21:48:30;;;;;;;35.92;27.05;;;8.50;99.90;;;;;;4891851;29;20423;-86
2023/04/09 21:50:57;;;;;;;35.58;25.98;;;8.40;99.90;;;;;;4879460;29;20522;-86
2023/04/09 21:53:23;;;;;;;35.97;27.38;;;8.80;99.90;;;;;;5022803;28;20051;-87
2023/04/09 21:55:50;;;;;;;34.72;27.08;;;8.40;99.90;;;;;;5071245;28;20071;-86
2023/04/09 21:58:16;;;;;;;37.35;28.20;;;8.40;99.90;;;;;;5049759;28;20125;-86